Time;durP1;ratioP1;P1;durP2;ratioP2;P2;SDS_P1;SDS_P2;PMS_P1;PMS_P2;Temp;Humidity;BMP_temperature;BMP_pressure;BME280_temperature;BME280_humidity;BME280_pressure;Samples;Min_cycle;Max_cycle;Signal;HPM_P1;HPM_P2
2021/12/23 00:01:06;;;;;;;4.30;2.53;;;-16.90;90.10;;;;;;4981165;28;20042;-79
2021/12/23 00:03:32;;;;;;;7.37;4.87;;;-16.90;90.10;;;;;;4988003;28;20713;-78
2021/12/23 00:05:58;;;;;;;3.03;2.80;;;-16.90;90.20;;;;;;4991355;28;20023;-79
2021/12/23 00:08:24;;;;;;;10.13;4.33;;;-16.80;90.30;;;;;;4983634;28;20057;-78
2021/12/23 00:10:50;;;;;;;3.60;2.43;;;-16.80;90.40;;;;;;4994041;28;20029;-77
2021/12/23 00:13:16;;;;;;;5.00;3.07;;;-16.70;90.50;;;;;;4994014;28;20084;-78
2021/12/23 00:16:03;;;;;;;7.13;4.63;;;-16.70;90.50;;;;;;4994146;28;20190;-78
2021/12/23 00:23:42;;;;;;;6.22;2.70;;;-16.60;90.30;;;;;;4986259;28;20037;-80
2021/12/23 00:26:08;;;;;;;13.93;6.18;;;-16.50;90.30;;;;;;4993897;28;20026;-77
2021/12/23 00:28:34;;;;;;;7.83;4.80;;;-16.50;90.30;;;;;;4987947;28;20027;-78
2021/12/23 00:31:00;;;;;;;9.00;4.87;;;-16.40;90.40;;;;;;4991047;28;20471;-78
2021/12/23 00:33:27;;;;;;;3.92;3.20;;;-16.40;90.40;;;;;;4995483;28;20042;-78
2021/12/23 00:35:55;;;;;;;8.60;3.83;;;-16.40;90.40;;;;;;4997043;28;20038;-80
2021/12/23 00:38:28;;;;;;;12.30;3.83;;;-16.30;90.50;;;;;;4994358;28;20074;-79
2021/12/23 00:40:55;;;;;;;14.38;3.63;;;-16.20;90.60;;;;;;4993963;28;20372;-79
2021/12/23 00:43:21;;;;;;;4.85;3.08;;;-16.20;90.60;;;;;;4994733;28;20459;-77
2021/12/23 00:45:48;;;;;;;13.25;4.55;;;-16.10;90.60;;;;;;4998185;28;20034;-78
2021/12/23 00:48:14;;;;;;;4.88;2.38;;;-16.10;90.50;;;;;;4996616;28;20054;-78
2021/12/23 00:50:40;;;;;;;7.20;3.88;;;-16.00;90.50;;;;;;4997717;28;20022;-78
2021/12/23 00:53:08;;;;;;;3.63;3.30;;;-16.00;90.50;;;;;;4997721;28;20031;-78
2021/12/23 00:55:34;;;;;;;6.80;3.78;;;-15.90;90.50;;;;;;4997726;28;20026;-79
2021/12/23 00:58:00;;;;;;;3.08;2.28;;;-15.90;90.60;;;;;;4997555;28;20416;-78
2021/12/23 01:00:27;;;;;;;3.22;2.60;;;-15.80;90.70;;;;;;4997614;28;20030;-77
2021/12/23 01:02:53;;;;;;;3.78;2.53;;;-15.80;90.70;;;;;;4998008;28;20050;-77
2021/12/23 01:05:22;;;;;;;1.95;1.80;;;-15.80;90.70;;;;;;4980380;28;20049;-80
2021/12/23 01:07:48;;;;;;;7.22;3.22;;;-15.70;90.70;;;;;;4997571;28;20386;-78
2021/12/23 01:10:15;;;;;;;3.58;3.22;;;-15.70;90.80;;;;;;4997390;28;20026;-78
2021/12/23 01:12:51;;;;;;;4.18;2.70;;;-15.70;90.80;;;;;;4997487;28;20104;-77
2021/12/23 01:18:05;;;;;;;5.18;2.70;;;-15.60;90.90;;;;;;5001640;28;20033;-77
2021/12/23 01:20:35;;;;;;;4.80;2.92;;;-15.60;90.90;;;;;;5000722;28;20090;-76
2021/12/23 01:23:06;;;;;;;3.10;2.65;;;-15.50;90.90;;;;;;4998263;28;20026;-77
2021/12/23 01:25:35;;;;;;;5.43;3.00;;;-15.50;91.00;;;;;;4998038;28;20014;-77
2021/12/23 01:28:01;;;;;;;5.90;2.90;;;-15.40;91.10;;;;;;4997232;28;20050;-78
2021/12/23 01:30:27;;;;;;;7.35;3.75;;;-15.40;91.10;;;;;;4997031;28;20026;-77
2021/12/23 01:32:57;;;;;;;4.63;4.23;;;-15.30;91.10;;;;;;4996976;28;20045;-76
2021/12/23 01:35:25;;;;;;;1.90;1.70;;;-15.30;91.10;;;;;;4996870;28;20029;-77
2021/12/23 01:37:50;;;;;;;4.07;2.20;;;-15.30;91.20;;;;;;4996726;28;20046;-78
2021/12/23 01:40:18;;;;;;;6.03;4.23;;;-15.20;91.30;;;;;;4995554;28;20037;-78
2021/12/23 01:42:45;;;;;;;4.95;3.05;;;-15.10;91.30;;;;;;4998034;28;20034;-78
2021/12/23 01:45:14;;;;;;;10.48;2.63;;;-15.10;91.40;;;;;;4996437;28;20506;-78
2021/12/23 01:47:41;;;;;;;5.78;3.00;;;-15.00;91.40;;;;;;4997162;28;20475;-77
2021/12/23 01:50:07;;;;;;;;;;;-15.00;91.50;;;;;;4998021;28;20034;-78
2021/12/23 01:52:33;;;;;;;2.45;2.10;;;-14.90;91.50;;;;;;4995300;28;20339;-78
2021/12/23 01:54:59;;;;;;;4.87;4.03;;;-14.90;91.50;;;;;;4996187;28;20097;-78
2021/12/23 01:57:30;;;;;;;3.60;2.70;;;-14.80;91.50;;;;;;4996674;28;20114;-78
2021/12/23 01:59:57;;;;;;;2.42;2.22;;;-14.80;91.60;;;;;;4996611;28;20085;-79
2021/12/23 02:02:23;;;;;;;9.05;4.13;;;-14.70;91.70;;;;;;4997574;28;20038;-77
2021/12/23 02:04:49;;;;;;;5.33;3.37;;;-14.70;91.70;;;;;;4995891;28;20105;-78
2021/12/23 02:07:15;;;;;;;6.70;3.00;;;-14.60;91.70;;;;;;4997927;28;20030;-78
2021/12/23 02:09:41;;;;;;;7.82;4.18;;;-14.60;91.70;;;;;;4996563;28;20109;-79
2021/12/23 02:12:08;;;;;;;9.85;4.00;;;-14.50;91.70;;;;;;4997784;28;20106;-78
2021/12/23 02:14:34;;;;;;;5.78;3.67;;;-14.50;91.70;;;;;;5006212;28;20015;-77
2021/12/23 02:17:00;;;;;;;8.93;3.15;;;-14.40;91.60;;;;;;5001059;28;20472;-78
2021/12/23 02:19:27;;;;;;;5.45;2.90;;;-14.40;91.60;;;;;;4997062;28;20038;-78
2021/12/23 02:21:53;;;;;;;9.45;3.75;;;-14.30;91.60;;;;;;4997407;28;20511;-77
2021/12/23 02:24:19;;;;;;;7.27;3.57;;;-14.30;91.70;;;;;;4996243;28;20040;-78
2021/12/23 02:26:45;;;;;;;6.53;4.47;;;-14.20;91.60;;;;;;4996380;28;20026;-78
2021/12/23 02:29:11;;;;;;;4.70;3.23;;;-14.20;91.70;;;;;;4996084;28;20050;-77
2021/12/23 02:31:37;;;;;;;2.57;2.37;;;-14.10;91.80;;;;;;4995946;28;20031;-77
2021/12/23 02:34:04;;;;;;;5.85;3.88;;;-14.10;91.80;;;;;;4996031;28;20484;-78
2021/12/23 02:36:32;;;;;;;5.35;2.58;;;-14.00;91.80;;;;;;4995786;28;20065;-77
2021/12/23 02:38:59;;;;;;;6.45;2.78;;;-14.00;91.70;;;;;;4993391;28;20057;-79
2021/12/23 02:41:26;;;;;;;6.97;3.78;;;-14.00;91.70;;;;;;4995921;28;20038;-77
2021/12/23 02:43:52;;;;;;;7.93;3.23;;;-13.90;91.70;;;;;;4996113;28;20053;-80
2021/12/23 02:46:19;;;;;;;3.20;2.40;;;-13.90;91.60;;;;;;4996909;28;20260;-79
2021/12/23 02:48:46;;;;;;;4.25;1.48;;;-13.80;91.60;;;;;;4996674;28;20135;-79
2021/12/23 02:51:15;;;;;;;5.32;3.72;;;-13.80;91.60;;;;;;4996915;28;20018;-77
2021/12/23 02:53:43;;;;;;;4.82;3.03;;;-13.80;91.60;;;;;;4996103;28;20065;-79
2021/12/23 02:56:14;;;;;;;8.20;4.13;;;-13.70;91.60;;;;;;4996917;28;20022;-78
2021/12/23 02:58:40;;;;;;;9.07;3.97;;;-13.70;91.60;;;;;;4996079;28;20022;-79
2021/12/23 03:01:08;;;;;;;6.30;4.28;;;-13.60;91.70;;;;;;4995437;28;20434;-79
2021/12/23 03:03:34;;;;;;;2.95;2.47;;;-13.60;91.60;;;;;;4994041;28;20114;-78
2021/12/23 03:06:00;;;;;;;4.57;2.80;;;-13.60;91.60;;;;;;4995487;28;20119;-78
2021/12/23 03:08:41;;;;;;;5.10;2.33;;;-13.50;91.80;;;;;;4994453;28;20050;-79
2021/12/23 03:11:10;;;;;;;6.68;3.55;;;-13.40;91.70;;;;;;4995302;28;20479;-77
2021/12/23 03:13:36;;;;;;;9.80;4.93;;;-13.40;91.70;;;;;;4995161;28;20031;-78
2021/12/23 03:16:03;;;;;;;5.82;3.03;;;-13.30;91.70;;;;;;4995663;28;20033;-77
2021/12/23 03:18:29;;;;;;;6.97;4.15;;;-13.30;91.70;;;;;;4995054;28;20037;-78
2021/12/23 03:20:55;;;;;;;7.50;3.90;;;-13.20;91.70;;;;;;4993690;28;20412;-79
2021/12/23 03:23:22;;;;;;;5.35;2.47;;;-13.20;91.60;;;;;;4994858;28;20034;-79
2021/12/23 03:25:48;;;;;;;3.58;1.83;;;-13.10;91.90;;;;;;5002750;28;20443;-78
2021/12/23 03:28:14;;;;;;;9.02;4.28;;;-13.10;91.50;;;;;;4999822;28;20084;-78
2021/12/23 03:30:40;;;;;;;6.38;3.67;;;-13.10;91.50;;;;;;4995787;28;20026;-78
2021/12/23 03:33:06;;;;;;;7.50;4.70;;;-13.00;91.60;;;;;;4994986;28;20061;-78
2021/12/23 03:35:32;;;;;;;7.75;3.78;;;-13.00;91.50;;;;;;4995246;28;20026;-78
2021/12/23 03:37:59;;;;;;;8.38;3.75;;;-13.00;91.40;;;;;;4994630;28;20052;-79
2021/12/23 03:40:25;;;;;;;6.10;3.50;;;-13.00;91.40;;;;;;4994840;28;20031;-77
2021/12/23 03:42:51;;;;;;;5.07;2.83;;;-12.90;91.40;;;;;;4994921;28;20372;-79
2021/12/23 03:45:17;;;;;;;8.57;3.53;;;-12.90;91.50;;;;;;4994891;28;20030;-77
2021/12/23 03:47:48;;;;;;;8.48;3.88;;;-12.90;91.40;;;;;;4996250;28;20124;-78
2021/12/23 03:50:17;;;;;;;9.82;4.05;;;-12.80;91.50;;;;;;4995705;28;20033;-78
2021/12/23 03:52:43;;;;;;;6.15;3.63;;;-12.80;91.50;;;;;;4995273;28;20037;-76
2021/12/23 03:55:10;;;;;;;14.32;4.28;;;-12.80;91.50;;;;;;4995097;28;20023;-77
2021/12/23 03:57:36;;;;;;;7.85;3.72;;;-12.70;91.60;;;;;;4994948;28;20035;-77
2021/12/23 04:00:05;;;;;;;7.05;3.75;;;-12.70;91.50;;;;;;5003924;28;20030;-81
2021/12/23 04:02:31;;;;;;;9.48;3.60;;;-12.70;91.50;;;;;;4998109;28;20092;-77
2021/12/23 04:04:57;;;;;;;5.27;3.87;;;-12.70;91.50;;;;;;4994913;28;20046;-76
2021/12/23 04:07:23;;;;;;;5.03;2.35;;;-12.60;91.50;;;;;;4995183;28;20148;-78
2021/12/23 04:09:49;;;;;;;7.38;3.40;;;-12.60;91.50;;;;;;4994788;28;20030;-78
2021/12/23 04:12:14;;;;;;;4.63;2.03;;;-12.50;91.60;;;;;;4996095;28;20091;-78
2021/12/23 04:14:40;;;;;;;4.53;2.55;;;-12.50;91.60;;;;;;4994544;28;20467;-78
2021/12/23 04:17:06;;;;;;;9.70;4.63;;;-12.50;91.70;;;;;;4993974;28;20033;-78
2021/12/23 04:19:33;;;;;;;8.20;4.40;;;-12.50;91.70;;;;;;4994518;28;20029;-79
2021/12/23 04:21:59;;;;;;;2.72;2.50;;;-12.40;91.80;;;;;;4993993;28;20494;-79
2021/12/23 04:24:25;;;;;;;4.72;3.90;;;-12.40;91.70;;;;;;4992568;28;20038;-79
2021/12/23 04:26:51;;;;;;;3.70;2.00;;;-12.40;91.80;;;;;;4992947;28;20033;-80
2021/12/23 04:29:18;;;;;;;4.78;3.20;;;-12.30;91.90;;;;;;5009025;28;20019;-79
2021/12/23 04:31:44;;;;;;;13.73;4.17;;;-12.30;92.00;;;;;;4994285;28;20030;-79
2021/12/23 04:34:10;;;;;;;7.13;2.78;;;-12.30;92.00;;;;;;4993709;28;20026;-79
2021/12/23 04:36:36;;;;;;;7.90;4.38;;;-12.20;92.00;;;;;;4993826;28;20144;-80
2021/12/23 04:39:03;;;;;;;3.97;2.85;;;-12.20;92.10;;;;;;4992399;28;20479;-80
2021/12/23 04:41:31;;;;;;;6.03;2.55;;;-12.10;92.10;;;;;;4993520;28;20077;-77
2021/12/23 04:43:57;;;;;;;6.00;3.45;;;-12.10;92.30;;;;;;4993828;28;20041;-78
2021/12/23 04:46:23;;;;;;;2.58;2.00;;;-12.10;92.30;;;;;;4992463;28;20035;-80
2021/12/23 04:48:50;;;;;;;8.77;4.23;;;-12.00;92.30;;;;;;4994102;28;20026;-79
2021/12/23 04:51:17;;;;;;;8.95;2.83;;;-12.00;92.30;;;;;;4993562;28;20423;-80
2021/12/23 04:53:44;;;;;;;9.77;5.00;;;-11.90;92.40;;;;;;4993888;28;20028;-79
2021/12/23 04:56:12;;;;;;;6.13;3.25;;;-11.90;92.50;;;;;;4994028;28;20030;-78
2021/12/23 04:58:39;;;;;;;7.00;4.03;;;-11.80;92.50;;;;;;4993657;28;20026;-78
2021/12/23 05:01:06;;;;;;;13.40;5.30;;;-11.80;92.50;;;;;;4993685;28;20038;-79
2021/12/23 05:03:32;;;;;;;14.68;4.57;;;-11.80;92.50;;;;;;4993783;28;20471;-78
2021/12/23 05:05:58;;;;;;;9.07;4.53;;;-11.60;92.50;;;;;;4994224;28;20034;-81
2021/12/23 05:08:24;;;;;;;7.97;3.88;;;-11.60;92.60;;;;;;4994117;28;20276;-80
2021/12/23 05:10:50;;;;;;;6.05;4.13;;;-11.60;92.60;;;;;;5003167;28;20027;-80
2021/12/23 05:13:16;;;;;;;8.55;4.90;;;-11.60;92.60;;;;;;5001197;28;20058;-79
2021/12/23 05:15:42;;;;;;;9.85;4.93;;;-11.50;92.60;;;;;;4992797;28;20502;-80
2021/12/23 05:18:08;;;;;;;11.33;4.20;;;-11.50;92.60;;;;;;4993449;28;20458;-79
2021/12/23 05:20:34;;;;;;;11.68;5.80;;;-11.50;92.50;;;;;;4993313;28;20022;-80
2021/12/23 05:23:00;;;;;;;8.18;3.83;;;-11.50;92.50;;;;;;4993249;28;20048;-80
2021/12/23 05:25:26;;;;;;;8.68;4.95;;;-11.50;92.50;;;;;;4993395;28;20022;-78
2021/12/23 05:27:54;;;;;;;5.22;3.40;;;-11.50;92.50;;;;;;4995307;28;20072;-79
2021/12/23 05:30:21;;;;;;;11.60;4.63;;;-11.50;92.40;;;;;;5000074;28;20022;-78
2021/12/23 05:32:48;;;;;;;8.00;4.70;;;-11.50;92.40;;;;;;4986902;28;20061;-78
2021/12/23 05:35:16;;;;;;;5.30;3.38;;;-11.60;92.40;;;;;;4978058;28;20073;-80
2021/12/23 05:37:43;;;;;;;4.72;3.17;;;-11.60;92.40;;;;;;4978963;28;20050;-81
2021/12/23 05:40:12;;;;;;;4.95;4.07;;;-11.60;92.50;;;;;;4997075;28;20026;-79
2021/12/23 05:42:38;;;;;;;10.50;5.43;;;-11.60;92.60;;;;;;4997405;28;20047;-79
2021/12/23 05:45:04;;;;;;;6.97;3.47;;;-11.50;92.60;;;;;;4997168;28;20090;-81
2021/12/23 05:47:30;;;;;;;7.38;4.63;;;-11.50;92.60;;;;;;4977922;28;20078;-80
2021/12/23 05:49:56;;;;;;;7.45;4.00;;;-11.50;92.60;;;;;;4977928;28;20035;-80
2021/12/23 05:52:22;;;;;;;10.98;4.78;;;-11.40;92.70;;;;;;4977989;28;20113;-78
2021/12/23 05:54:47;;;;;;;6.43;2.88;;;-11.40;92.80;;;;;;4977074;28;20038;-80
2021/12/23 05:57:13;;;;;;;7.35;4.47;;;-11.30;92.90;;;;;;4977281;28;20031;-80
2021/12/23 05:59:39;;;;;;;8.43;5.03;;;-11.30;92.90;;;;;;4977432;28;20026;-80
2021/12/23 06:02:05;;;;;;;6.07;4.28;;;-11.30;93.10;;;;;;4976902;28;20043;-80
2021/12/23 06:04:34;;;;;;;4.70;2.75;;;-11.20;92.80;;;;;;4977935;28;20030;-79
2021/12/23 06:07:01;;;;;;;15.18;5.43;;;-11.20;92.80;;;;;;4976400;28;20030;-78
2021/12/23 06:09:27;;;;;;;7.63;4.38;;;-11.20;92.80;;;;;;4977081;28;20033;-78
2021/12/23 06:11:53;;;;;;;10.20;6.05;;;-11.10;92.90;;;;;;4977237;28;20114;-80
2021/12/23 06:14:21;;;;;;;8.52;4.45;;;-11.00;92.90;;;;;;4991956;28;20362;-79
2021/12/23 06:16:46;;;;;;;8.52;3.65;;;-11.00;93.00;;;;;;4977330;28;20027;-78
2021/12/23 06:19:12;;;;;;;10.38;5.38;;;-11.00;93.10;;;;;;4990850;28;20037;-80
2021/12/23 06:21:38;;;;;;;11.55;4.93;;;-10.90;93.10;;;;;;4996142;28;20053;-79
2021/12/23 06:24:04;;;;;;;3.92;3.00;;;-10.80;93.10;;;;;;4996259;28;20036;-80
2021/12/23 06:26:31;;;;;;;11.93;6.38;;;-10.80;93.00;;;;;;4992782;28;20118;-78
2021/12/23 06:28:58;;;;;;;4.20;3.28;;;-10.70;93.10;;;;;;4976606;28;20030;-82
2021/12/23 06:31:24;;;;;;;8.70;4.47;;;-10.60;93.10;;;;;;4976574;28;20468;-80
2021/12/23 06:33:50;;;;;;;12.30;5.53;;;-10.60;93.00;;;;;;4977609;28;20101;-80
2021/12/23 06:36:17;;;;;;;7.03;3.67;;;-10.60;93.00;;;;;;4975203;28;20071;-81
2021/12/23 06:38:43;;;;;;;;;;;-10.50;92.80;;;;;;4979939;28;20034;-79
2021/12/23 06:41:09;;;;;;;7.75;3.42;;;-10.50;92.70;;;;;;4975809;28;20302;-83
2021/12/23 06:43:35;;;;;;;6.00;4.75;;;-10.50;92.60;;;;;;4978664;28;20487;-81
2021/12/23 06:46:02;;;;;;;6.38;3.53;;;-10.50;92.60;;;;;;4976137;28;20037;-81
2021/12/23 06:48:29;;;;;;;10.60;4.53;;;-10.50;92.60;;;;;;4982152;28;20042;-80
2021/12/23 06:50:56;;;;;;;7.90;6.78;;;-10.50;92.50;;;;;;4982115;28;20407;-80
2021/12/23 06:53:23;;;;;;;9.88;7.00;;;-10.50;92.60;;;;;;4975923;28;20031;-81
2021/12/23 06:55:51;;;;;;;10.30;6.75;;;-10.50;92.60;;;;;;4980911;28;20022;-80
2021/12/23 06:58:17;;;;;;;8.30;5.38;;;-10.40;92.60;;;;;;4993984;28;20038;-78
2021/12/23 07:00:43;;;;;;;6.17;4.50;;;-10.40;92.60;;;;;;4995564;28;20022;-81
2021/12/23 07:03:09;;;;;;;10.35;4.28;;;-10.40;92.70;;;;;;4996415;28;20311;-79
2021/12/23 07:05:35;;;;;;;8.30;5.57;;;-10.30;92.80;;;;;;4996501;28;20037;-79
2021/12/23 07:08:09;;;;;;;12.52;6.70;;;-10.30;92.80;;;;;;4995064;28;20030;-80
2021/12/23 07:10:36;;;;;;;10.32;5.25;;;-10.30;92.70;;;;;;4994494;28;20030;-79
2021/12/23 07:13:02;;;;;;;8.93;5.40;;;-10.20;92.60;;;;;;4996912;28;20022;-80
2021/12/23 07:15:29;;;;;;;13.35;5.50;;;-10.20;92.60;;;;;;4994528;28;20026;-80
2021/12/23 07:17:57;;;;;;;7.05;4.68;;;-10.10;92.60;;;;;;4995758;28;20061;-79
2021/12/23 07:20:24;;;;;;;9.32;5.18;;;-10.00;92.60;;;;;;4995298;28;20026;-80
2021/12/23 07:22:50;;;;;;;6.85;4.15;;;-10.00;92.60;;;;;;4995147;28;20497;-79
2021/12/23 07:25:17;;;;;;;7.95;4.55;;;-9.90;92.60;;;;;;4995331;28;20391;-80
2021/12/23 07:27:44;;;;;;;9.95;5.88;;;-9.90;92.40;;;;;;4995366;28;20035;-81
2021/12/23 07:30:13;;;;;;;10.57;5.53;;;-9.80;92.40;;;;;;4995652;28;20398;-80
2021/12/23 07:32:40;;;;;;;9.77;4.82;;;-9.80;92.30;;;;;;4996591;28;20029;-78
2021/12/23 07:35:07;;;;;;;4.47;2.63;;;-9.80;92.30;;;;;;5013838;28;20026;-79
2021/12/23 07:37:33;;;;;;;9.52;5.40;;;-9.70;92.30;;;;;;4996506;28;20046;-80
2021/12/23 07:40:00;;;;;;;6.40;3.53;;;-9.60;92.10;;;;;;4996151;28;20100;-81
2021/12/23 07:42:27;;;;;;;9.32;5.18;;;-9.60;92.10;;;;;;4995428;28;20034;-79
2021/12/23 07:44:54;;;;;;;9.23;6.05;;;-9.50;92.10;;;;;;4994713;28;20030;-79
2021/12/23 07:47:20;;;;;;;12.93;5.67;;;-9.50;91.90;;;;;;4994879;28;20042;-81
2021/12/23 07:49:45;;;;;;;9.55;4.32;;;-9.40;91.50;;;;;;4993756;28;20061;-78
2021/12/23 07:52:12;;;;;;;9.38;7.03;;;-9.40;91.50;;;;;;4994643;28;20105;-79
2021/12/23 07:54:38;;;;;;;3.00;2.05;;;-9.40;91.40;;;;;;4994775;28;20049;-79
2021/12/23 07:57:05;;;;;;;12.47;6.33;;;-9.40;91.40;;;;;;4995020;28;20446;-78
2021/12/23 07:59:30;;;;;;;8.35;4.60;;;-9.40;91.20;;;;;;4994921;28;20018;-78
2021/12/23 08:01:57;;;;;;;3.70;2.97;;;-9.40;91.10;;;;;;4994679;28;20034;-79
2021/12/23 08:04:24;;;;;;;8.38;4.50;;;-9.40;91.20;;;;;;4995452;28;20420;-78
2021/12/23 08:06:57;;;;;;;12.48;5.18;;;-9.40;90.90;;;;;;4997178;28;20034;-80
2021/12/23 08:09:25;;;;;;;13.38;6.18;;;-9.40;91.20;;;;;;4996555;28;20463;-80
2021/12/23 08:11:51;;;;;;;8.98;4.80;;;-9.30;91.40;;;;;;4994462;28;20026;-81
2021/12/23 08:14:17;;;;;;;8.93;5.68;;;-9.20;91.40;;;;;;5009815;28;20034;-81
2021/12/23 08:16:43;;;;;;;8.48;4.82;;;-9.10;91.10;;;;;;4993778;28;20018;-79
2021/12/23 08:19:10;;;;;;;6.70;4.80;;;-9.00;91.00;;;;;;4994505;28;20027;-80
2021/12/23 08:21:36;;;;;;;6.10;3.63;;;-8.80;91.20;;;;;;4993926;28;20034;-80
2021/12/23 08:24:02;;;;;;;13.52;5.70;;;-8.60;91.10;;;;;;4992317;28;20037;-80
2021/12/23 08:26:29;;;;;;;7.67;3.93;;;-8.50;90.90;;;;;;4993892;28;20031;-79
2021/12/23 08:28:56;;;;;;;7.32;3.85;;;-8.40;90.30;;;;;;4993772;28;20399;-78
2021/12/23 08:31:23;;;;;;;5.72;3.83;;;-8.30;90.10;;;;;;4993862;28;20030;-78
2021/12/23 08:33:50;;;;;;;;;;;-8.10;89.20;;;;;;4994080;28;20018;-80
2021/12/23 08:36:16;;;;;;;7.43;3.88;;;-8.10;89.30;;;;;;4993115;28;19905;-78
2021/12/23 08:38:43;;;;;;;6.78;3.05;;;-8.10;88.70;;;;;;4993852;28;20050;-79
2021/12/23 08:41:09;;;;;;;5.60;4.25;;;-8.20;88.10;;;;;;4993905;28;20033;-79
2021/12/23 08:43:35;;;;;;;8.75;4.85;;;-8.20;87.80;;;;;;4993754;28;20062;-80
2021/12/23 08:46:03;;;;;;;9.75;4.32;;;-8.40;87.20;;;;;;4993820;28;20415;-81
2021/12/23 08:48:28;;;;;;;8.35;4.20;;;-8.40;87.00;;;;;;4993759;28;20023;-81
2021/12/23 08:50:55;;;;;;;6.88;4.10;;;-8.50;86.70;;;;;;4994047;28;20034;-80
2021/12/23 08:53:21;;;;;;;6.50;3.75;;;-8.50;86.80;;;;;;4992460;28;20045;-80
2021/12/23 08:55:47;;;;;;;15.65;8.02;;;-8.60;87.40;;;;;;4994499;28;20022;-80
2021/12/23 08:58:13;;;;;;;10.50;5.93;;;-8.60;87.20;;;;;;4994265;28;20050;-80
2021/12/23 09:00:39;;;;;;;4.35;3.83;;;-8.60;87.60;;;;;;4994900;28;20494;-79
2021/12/23 09:03:07;;;;;;;6.95;3.88;;;-8.60;87.30;;;;;;4993631;28;20042;-79
2021/12/23 09:05:37;;;;;;;8.13;3.65;;;-8.60;87.80;;;;;;4994752;28;20037;-81
2021/12/23 09:08:05;;;;;;;4.25;2.45;;;-8.60;87.90;;;;;;4997813;28;20399;-80
2021/12/23 09:10:31;;;;;;;6.18;2.70;;;-8.60;87.90;;;;;;4997213;28;20026;-82
2021/12/23 09:12:57;;;;;;;7.63;4.85;;;-8.60;88.20;;;;;;4997671;28;20121;-80
2021/12/23 09:15:23;;;;;;;8.38;6.05;;;-8.60;87.50;;;;;;4997342;28;20034;-81
2021/12/23 09:17:50;;;;;;;5.40;3.92;;;-8.60;87.70;;;;;;4997808;28;20035;-81
2021/12/23 09:20:18;;;;;;;6.68;4.13;;;-8.60;87.80;;;;;;5012998;28;20022;-79
2021/12/23 09:22:49;;;;;;;5.13;3.60;;;-8.60;88.10;;;;;;4997944;28;20031;-82
2021/12/23 09:25:25;;;;;;;5.43;3.53;;;-8.60;88.20;;;;;;5012376;28;20022;-81
2021/12/23 09:28:51;;;;;;;7.53;3.70;;;-8.50;88.40;;;;;;4997477;28;20026;-80
2021/12/23 09:33:27;;;;;;;7.88;4.78;;;-8.40;88.20;;;;;;4997261;28;20549;-80
2021/12/23 09:35:53;;;;;;;5.45;3.60;;;-8.30;87.90;;;;;;4995807;28;20030;-81
2021/12/23 09:38:27;;;;;;;9.33;4.37;;;-8.40;87.60;;;;;;4997946;28;20073;-81
2021/12/23 09:40:56;;;;;;;5.28;3.08;;;-8.40;87.70;;;;;;4998415;28;20387;-80
2021/12/23 09:43:26;;;;;;;8.57;5.47;;;-8.50;87.90;;;;;;4997425;28;20026;-83
2021/12/23 09:45:53;;;;;;;7.20;4.60;;;-8.50;87.30;;;;;;4997613;28;20022;-80
2021/12/23 09:48:21;;;;;;;9.85;4.68;;;-8.60;86.40;;;;;;4998974;28;20105;-79
2021/12/23 09:50:49;;;;;;;5.28;3.55;;;-8.60;86.60;;;;;;4997927;28;20379;-80
2021/12/23 09:53:18;;;;;;;6.80;4.07;;;-8.60;87.10;;;;;;4997444;28;20049;-80
2021/12/23 09:55:44;;;;;;;9.30;4.40;;;-8.70;87.40;;;;;;4998954;28;20018;-81
2021/12/23 09:58:10;;;;;;;8.30;4.38;;;-8.70;86.90;;;;;;4997937;28;20029;-82
2021/12/23 10:00:39;;;;;;;8.05;3.38;;;-8.70;87.20;;;;;;4996185;28;20108;-80
2021/12/23 10:03:07;;;;;;;4.35;3.33;;;-8.70;87.90;;;;;;4997024;28;20476;-80
2021/12/23 10:05:35;;;;;;;6.60;3.88;;;-8.60;88.30;;;;;;4996450;28;20026;-79
2021/12/23 10:08:02;;;;;;;6.13;4.50;;;-8.40;88.80;;;;;;4996443;28;20030;-79
2021/12/23 10:10:34;;;;;;;8.18;4.18;;;-8.20;87.90;;;;;;4996572;28;20109;-80
2021/12/23 10:27:01;;;;;;;9.07;3.65;;;-7.80;88.30;;;;;;4992106;28;20030;-81
2021/12/23 10:33:27;;;;;;;3.95;2.88;;;-7.80;84.20;;;;;;4979062;28;20043;-80
2021/12/23 10:38:07;;;;;;;6.45;4.05;;;-8.00;85.70;;;;;;4979721;28;20057;-79
2021/12/23 10:40:35;;;;;;;8.63;4.05;;;-8.00;86.60;;;;;;4996053;28;20018;-81
2021/12/23 10:43:01;;;;;;;9.73;3.65;;;-8.10;86.30;;;;;;4996286;28;20022;-80
2021/12/23 10:45:39;;;;;;;4.75;3.75;;;-8.10;86.70;;;;;;4996688;28;20022;-81
2021/12/23 10:48:13;;;;;;;6.45;3.60;;;-8.10;86.60;;;;;;4995963;28;20027;-80
2021/12/23 10:50:44;;;;;;;6.40;3.05;;;-8.10;86.90;;;;;;4995688;28;20033;-81
2021/12/23 10:59:13;;;;;;;2.83;2.05;;;-8.10;86.90;;;;;;5003432;28;20467;-80
2021/12/23 11:02:21;;;;;;;6.30;2.97;;;-8.10;87.00;;;;;;5002243;28;20026;-79
2021/12/23 11:05:21;;;;;;;4.05;3.13;;;-8.10;87.30;;;;;;5003110;28;20022;-82
2021/12/23 11:08:06;;;;;;;8.13;3.83;;;-8.20;87.60;;;;;;4997154;28;20026;-81
2021/12/23 11:30:53;;;;;;;9.48;3.78;;;-8.20;87.60;;;;;;4994585;28;20479;-80
2021/12/23 11:43:52;;;;;;;8.63;4.38;;;-8.20;87.10;;;;;;4995639;28;20380;-79
2021/12/23 11:46:39;;;;;;;8.15;4.63;;;-8.20;86.80;;;;;;4995633;28;20026;-79
2021/12/23 11:49:08;;;;;;;7.50;4.35;;;-8.20;86.80;;;;;;4994801;28;20093;-80
2021/12/23 11:54:11;;;;;;;9.13;4.32;;;-8.20;86.80;;;;;;4994548;28;20443;-81
2021/12/23 11:56:45;;;;;;;8.02;4.57;;;-8.20;86.40;;;;;;4992892;28;20027;-81
2021/12/23 11:59:14;;;;;;;6.82;4.40;;;-8.30;86.50;;;;;;4994374;28;20038;-79
2021/12/23 12:01:55;;;;;;;9.27;4.00;;;-8.20;86.50;;;;;;4994776;28;20040;-81
2021/12/23 12:04:28;;;;;;;5.78;3.17;;;-8.30;86.50;;;;;;4994688;28;20027;-80
2021/12/23 12:06:56;;;;;;;5.70;2.35;;;-8.20;87.30;;;;;;4994896;28;20431;-80
2021/12/23 12:09:26;;;;;;;4.82;3.15;;;-8.30;87.80;;;;;;4995355;28;20085;-79
2021/12/23 12:12:11;;;;;;;6.75;3.88;;;-8.30;87.80;;;;;;4994189;28;20117;-81
2021/12/23 12:14:40;;;;;;;5.53;3.95;;;-8.30;89.20;;;;;;4993148;28;20089;-82
2021/12/23 12:17:26;;;;;;;7.95;4.03;;;-8.40;89.00;;;;;;4994600;28;20034;-81
2021/12/23 12:20:04;;;;;;;6.68;3.90;;;-8.50;89.40;;;;;;4994742;28;20501;-81
2021/12/23 12:22:45;;;;;;;8.07;3.38;;;-8.50;89.60;;;;;;4995223;28;20026;-80
2021/12/23 12:25:44;;;;;;;7.20;4.03;;;-8.50;89.10;;;;;;4994360;28;20484;-80
2021/12/23 12:28:17;;;;;;;6.35;4.15;;;-8.60;89.40;;;;;;5001958;28;20034;-81
2021/12/23 12:30:59;;;;;;;5.97;3.38;;;-8.60;89.30;;;;;;4992779;28;20033;-80
2021/12/23 12:33:25;;;;;;;5.82;3.65;;;-8.70;88.70;;;;;;4993809;28;20054;-80
2021/12/23 12:36:04;;;;;;;6.07;3.45;;;-8.70;89.10;;;;;;4994907;28;20022;-81
2021/12/23 12:38:34;;;;;;;6.78;4.32;;;-8.70;89.40;;;;;;4994085;28;20406;-81
2021/12/23 12:41:07;;;;;;;8.90;4.95;;;-8.80;89.00;;;;;;4993940;28;20018;-80
2021/12/23 12:46:14;;;;;;;5.68;3.45;;;-8.80;89.50;;;;;;4994317;28;20030;-80
2021/12/23 12:49:17;;;;;;;5.80;3.92;;;-8.90;89.60;;;;;;4993103;28;20026;-79
2021/12/23 12:51:45;;;;;;;8.75;4.90;;;-8.90;89.50;;;;;;4993244;28;20046;-81
2021/12/23 12:54:18;;;;;;;6.50;4.22;;;-8.90;89.50;;;;;;4992363;28;20026;-82
2021/12/23 12:56:51;;;;;;;6.88;3.90;;;-9.00;89.60;;;;;;4994076;28;20039;-81
2021/12/23 12:59:22;;;;;;;8.20;3.88;;;-9.00;89.70;;;;;;4993544;28;20054;-81
2021/12/23 13:01:51;;;;;;;6.45;3.78;;;-9.00;89.90;;;;;;4992308;28;20121;-82
2021/12/23 13:04:34;;;;;;;5.88;3.22;;;-9.00;90.00;;;;;;4992445;28;20042;-81
2021/12/23 13:07:15;;;;;;;9.00;3.90;;;-9.00;90.10;;;;;;4992116;28;20030;-80
2021/12/23 13:10:07;;;;;;;4.82;3.05;;;-9.00;90.30;;;;;;4993639;28;20364;-80
2021/12/23 13:12:47;;;;;;;7.72;5.07;;;-9.10;90.40;;;;;;4993559;28;20041;-80
2021/12/23 13:15:16;;;;;;;7.35;4.97;;;-9.10;90.40;;;;;;4992347;28;20022;-79
2021/12/23 13:18:15;;;;;;;3.95;3.25;;;-9.10;90.60;;;;;;4993478;28;20062;-80
2021/12/23 13:20:48;;;;;;;4.13;3.53;;;-9.10;90.70;;;;;;4994099;28;20028;-79
2021/12/23 13:23:17;;;;;;;6.25;4.53;;;-9.10;90.60;;;;;;4992480;28;20023;-79
2021/12/23 13:25:47;;;;;;;7.45;4.82;;;-9.20;90.70;;;;;;4992844;28;20019;-80
2021/12/23 13:28:44;;;;;;;8.85;3.67;;;-9.20;91.00;;;;;;5009327;28;20049;-79
2021/12/23 13:31:17;;;;;;;9.70;4.90;;;-9.20;91.20;;;;;;4991326;28;20039;-78
2021/12/23 13:33:55;;;;;;;5.75;2.85;;;-9.20;91.10;;;;;;4991637;28;20035;-81
2021/12/23 13:36:24;;;;;;;8.57;4.18;;;-9.20;91.10;;;;;;4992722;28;20018;-81
2021/12/23 13:38:53;;;;;;;8.80;4.68;;;-9.20;91.10;;;;;;4992901;28;20022;-80
2021/12/23 13:41:25;;;;;;;8.38;5.20;;;-9.20;91.10;;;;;;4992931;28;20069;-80
2021/12/23 13:43:54;;;;;;;4.10;2.38;;;-9.20;91.20;;;;;;4992704;28;20424;-80
2021/12/23 13:46:20;;;;;;;6.32;4.70;;;-9.20;91.20;;;;;;4993054;28;20026;-80
2021/12/23 13:48:59;;;;;;;6.75;4.75;;;-9.20;91.20;;;;;;4993097;28;20387;-80
2021/12/23 13:51:28;;;;;;;11.13;4.93;;;-9.20;91.30;;;;;;4995048;28;20026;-79
2021/12/23 13:54:07;;;;;;;16.80;11.05;;;-9.20;91.30;;;;;;4997242;28;20080;-79
2021/12/23 13:56:35;;;;;;;17.60;9.25;;;-9.20;91.50;;;;;;4996202;28;20031;-80
2021/12/23 13:59:22;;;;;;;12.07;6.88;;;-9.20;91.50;;;;;;4998440;28;20029;-78
2021/12/23 14:01:57;;;;;;;8.18;4.95;;;-9.20;91.50;;;;;;4997648;28;20022;-79